< < Back
Terminal Aerodrome Forecast


Current Version              Previous Versions:   1  2  3  4  5  6  7  8  9  

Terminal Aerodrome Forecast

324
FTUS42 KCAE 230800 AAA
TAFAGS
TAF AMD
KAGS 230832Z 2309/2406 34004KT P6SM SKC
     FM231800 31006KT P6SM SKC=



Latest METAR

041
SAUS70 KWBC 231056
MTRAGS
METAR KAGS 231053Z 00000KT 10SM CLR 04/03 A3010 RMK AO2 SLP192
T00390028


USA.gov is the U.S. government's official web portal to all federal, state and local government web resources and services.